Time;durP1;ratioP1;P1;durP2;ratioP2;P2;SDS_P1;SDS_P2;PMS_P1;PMS_P2;Temp;Humidity;BMP_temperature;BMP_pressure;BME280_temperature;BME280_humidity;BME280_pressure;Samples;Min_cycle;Max_cycle;Signal;HPM_P1;HPM_P2
2024/02/27 00:00:01;;;;;;;;;;;;;;;19.48;48.35;100695.41;2066517;28;6344;-67
2024/02/27 00:01:03;;;;;;;;;;;;;;;19.48;48.40;100693.25;2068286;28;2428;-66
2024/02/27 00:02:04;;;;;;;;;;;;;;;19.46;48.31;100698.91;2067225;28;2113;-65
2024/02/27 00:03:07;;;;;;;;;;;;;;;19.46;48.55;100696.03;2067307;28;2447;-65
2024/02/27 00:04:09;;;;;;;;;;;;;;;19.46;48.40;100693.16;2068354;28;2532;-66
2024/02/27 00:05:11;;;;;;;;;;;;;;;19.45;48.38;100692.41;2067645;28;1731;-66
2024/02/27 00:06:13;;;;;;;;;;;;;;;19.46;48.43;100702.50;2068341;28;2054;-66
2024/02/27 00:07:15;;;;;;;;;;;;;;;19.46;48.31;100704.63;2068368;28;1765;-66
2024/02/27 00:08:16;;;;;;;;;;;;;;;19.44;48.26;100702.41;2069788;28;1719;-65
2024/02/27 00:09:18;;;;;;;;;;;;;;;19.45;48.34;100703.16;2068062;28;1621;-65
2024/02/27 00:10:20;;;;;;;;;;;;;;;19.44;48.32;100695.94;2066871;28;2007;-66
2024/02/27 00:11:21;;;;;;;;;;;;;;;19.44;48.35;100701.66;2068261;28;2022;-66
2024/02/27 00:12:23;;;;;;;;;;;;;;;19.43;48.27;100705.94;2065987;28;2495;-66
2024/02/27 00:13:24;;;;;;;;;;;;;;;19.44;48.28;100701.66;2067414;28;2518;-66
2024/02/27 00:14:26;;;;;;;;;;;;;;;19.43;48.37;100706.69;2069963;28;1940;-66
2024/02/27 00:15:27;;;;;;;;;;;;;;;19.45;48.26;100714.66;2066678;28;2166;-66
2024/02/27 00:16:28;;;;;;;;;;;;;;;19.44;48.27;100707.41;2068281;28;1947;-66
2024/02/27 00:17:30;;;;;;;;;;;;;;;19.44;48.29;100708.16;2067640;28;1652;-66
2024/02/27 00:18:31;;;;;;;;;;;;;;;19.43;48.34;100706.69;2067840;28;2161;-66
2024/02/27 00:19:33;;;;;;;;;;;;;;;19.43;48.27;100700.94;2066192;28;2554;-66
2024/02/27 00:20:34;;;;;;;;;;;;;;;19.43;48.22;100711.69;2067522;28;2149;-66
2024/02/27 00:21:35;;;;;;;;;;;;;;;19.43;48.34;100703.81;2068578;28;1991;-66
2024/02/27 00:22:37;;;;;;;;;;;;;;;19.44;48.22;100713.16;2067825;28;1708;-66
2024/02/27 00:23:39;;;;;;;;;;;;;;;19.43;48.29;100711.69;2066859;28;2108;-65
2024/02/27 00:24:40;;;;;;;;;;;;;;;19.43;48.30;100717.44;2067112;28;2114;-64
2024/02/27 00:25:41;;;;;;;;;;;;;;;19.44;48.27;100721.78;2066913;28;2404;-66
2024/02/27 00:26:43;;;;;;;;;;;;;;;19.41;48.23;100715.19;2069583;28;2247;-66
2024/02/27 00:27:44;;;;;;;;;;;;;;;19.43;48.26;100717.44;2069061;28;2658;-66
2024/02/27 00:28:46;;;;;;;;;;;;;;;19.42;48.23;100718.81;2067685;28;1618;-66
2024/02/27 00:29:47;;;;;;;;;;;;;;;19.41;48.23;100725.94;2067020;28;2034;-65
2024/02/27 00:30:48;;;;;;;;;;;;;;;19.41;48.24;100708.72;2067196;28;6470;-66
2024/02/27 00:31:50;;;;;;;;;;;;;;;19.41;48.20;100717.31;2068003;28;1892;-66
2024/02/27 00:32:54;;;;;;;;;;;;;;;19.41;48.19;100720.19;2068710;28;1605;-66
2024/02/27 00:33:56;;;;;;;;;;;;;;;19.41;48.17;100725.94;2066835;28;2207;-65
2024/02/27 00:34:57;;;;;;;;;;;;;;;19.40;48.22;100730.94;2067693;28;1783;-65
2024/02/27 00:36:02;;;;;;;;;;;;;;;19.41;48.14;100728.81;2065244;28;2558;-66
2024/02/27 00:37:03;;;;;;;;;;;;;;;19.40;48.16;100736.69;2069009;28;1697;-65
2024/02/27 00:38:05;;;;;;;;;;;;;;;19.40;48.15;100727.31;2068078;28;2248;-65
2024/02/27 00:39:06;;;;;;;;;;;;;;;19.40;48.21;100730.19;2069934;28;1858;-63
2024/02/27 00:40:08;;;;;;;;;;;;;;;19.39;48.13;100725.84;2066426;28;1949;-65
2024/02/27 00:41:09;;;;;;;;;;;;;;;19.39;48.18;100728.72;2068112;28;1705;-65
2024/02/27 00:42:11;;;;;;;;;;;;;;;19.39;48.10;100731.59;2067039;28;2479;-65
2024/02/27 00:43:12;;;;;;;;;;;;;;;19.38;48.16;100725.09;2067676;28;2149;-66
2024/02/27 00:44:14;;;;;;;;;;;;;;;19.39;48.14;100734.47;2068359;28;2019;-65
2024/02/27 00:45:15;;;;;;;;;;;;;;;19.39;48.02;100740.19;2068850;28;2121;-65
2024/02/27 00:46:16;;;;;;;;;;;;;;;19.38;48.12;100739.47;2069470;28;2133;-63
2024/02/27 00:47:18;;;;;;;;;;;;;;;19.38;48.10;100727.97;2066198;28;2053;-66
2024/02/27 00:48:19;;;;;;;;;;;;;;;19.37;48.02;100734.34;2068487;28;1705;-65
2024/02/27 00:49:21;;;;;;;;;;;;;;;19.37;48.09;100728.63;2067036;28;2131;-65
2024/02/27 00:50:22;;;;;;;;;;;;;;;19.37;48.01;100731.47;2067160;28;1777;-66
2024/02/27 00:51:24;;;;;;;;;;;;;;;19.37;48.02;100737.22;2067627;28;2280;-65
2024/02/27 00:52:25;;;;;;;;;;;;;;;19.36;48.01;100739.38;2067257;28;2416;-65
2024/02/27 00:53:27;;;;;;;;;;;;;;;19.37;48.06;100731.47;2069652;28;2228;-66
2024/02/27 00:54:28;;;;;;;;;;;;;;;19.36;48.03;100736.50;2067419;28;2051;-65
2024/02/27 00:55:29;;;;;;;;;;;;;;;19.36;47.98;100736.50;2067282;28;2058;-65
2024/02/27 00:56:31;;;;;;;;;;;;;;;19.36;48.05;100742.22;2067712;28;2145;-66
2024/02/27 00:57:32;;;;;;;;;;;;;;;19.36;47.91;100735.75;2065067;28;2462;-65
2024/02/27 00:58:34;;;;;;;;;;;;;;;19.36;47.94;100732.88;2068773;28;2062;-65
2024/02/27 00:59:36;;;;;;;;;;;;;;;19.36;47.91;100741.50;2069432;28;2690;-65
2024/02/27 01:00:37;;;;;;;;;;;;;;;19.35;47.85;100735.00;2066734;28;6784;-66
2024/02/27 01:01:38;;;;;;;;;;;;;;;19.35;47.79;100748.63;2067961;28;2108;-65
2024/02/27 01:02:41;;;;;;;;;;;;;;;19.36;47.94;100741.50;2068830;28;2439;-65
2024/02/27 01:03:42;;;;;;;;;;;;;;;19.34;47.89;100733.53;2076035;28;1673;-65
2024/02/27 01:04:44;;;;;;;;;;;;;;;19.34;47.82;100739.25;2075775;28;2098;-64
2024/02/27 01:05:45;;;;;;;;;;;;;;;19.34;47.93;100735.66;2065739;28;2033;-65
2024/02/27 01:06:47;;;;;;;;;;;;;;;19.34;47.94;100732.78;2068491;28;2058;-65
2024/02/27 01:07:48;;;;;;;;;;;;;;;19.33;47.82;100739.91;2067512;28;1697;-64
2024/02/27 01:08:49;;;;;;;;;;;;;;;19.34;47.87;100738.53;2065944;28;2346;-65
2024/02/27 01:09:51;;;;;;;;;;;;;;;19.35;47.93;100740.00;2068444;28;1714;-65
2024/02/27 01:10:52;;;;;;;;;;;;;;;19.33;47.92;100739.91;2066463;28;2515;-65
2024/02/27 01:11:53;;;;;;;;;;;;;;;19.32;47.87;100747.78;2067937;28;2149;-63
2024/02/27 01:12:55;;;;;;;;;;;;;;;19.33;47.92;100745.63;2067312;28;2507;-64
2024/02/27 01:13:56;;;;;;;;;;;;;;;19.33;47.84;100742.75;2068753;28;2137;-65
2024/02/27 01:14:58;;;;;;;;;;;;;;;19.33;47.81;100737.03;2067341;28;1757;-65
2024/02/27 01:15:59;;;;;;;;;;;;;;;19.32;47.78;100747.78;2066697;28;2172;-65
2024/02/27 01:17:01;;;;;;;;;;;;;;;19.32;47.77;100741.28;2068047;28;2074;-65
2024/02/27 01:18:02;;;;;;;;;;;;;;;19.31;47.81;100734.06;2066701;28;2269;-65
2024/02/27 01:19:04;;;;;;;;;;;;;;;19.32;47.71;100735.56;2068299;28;1625;-65
2024/02/27 01:20:06;;;;;;;;;;;;;;;19.30;47.73;100738.31;2068365;28;2275;-65
2024/02/27 01:21:07;;;;;;;;;;;;;;;19.30;47.82;100744.06;2066868;28;2141;-65
2024/02/27 01:22:09;;;;;;;;;;;;;;;19.30;47.82;100744.78;2068075;28;2189;-65
2024/02/27 01:23:10;;;;;;;;;;;;;;;19.30;47.74;100746.94;2066686;28;2432;-65
2024/02/27 01:24:11;;;;;;;;;;;;;;;19.30;47.71;100749.81;2067408;28;1631;-65
2024/02/27 01:25:13;;;;;;;;;;;;;;;19.30;47.67;100744.06;2069092;28;1672;-65
2024/02/27 01:26:14;;;;;;;;;;;;;;;19.29;47.62;100742.56;2065762;28;2318;-65
2024/02/27 01:27:15;;;;;;;;;;;;;;;19.28;47.69;100741.81;2069065;28;2746;-65
2024/02/27 01:28:17;;;;;;;;;;;;;;;19.28;47.74;100741.09;2067404;28;2633;-65
2024/02/27 01:29:18;;;;;;;;;;;;;;;19.28;47.70;100741.09;2067923;28;1617;-65
2024/02/27 01:30:19;;;;;;;;;;;;;;;19.27;47.68;100743.22;2065971;28;6104;-65
2024/02/27 01:31:21;;;;;;;;;;;;;;;19.28;47.64;100746.84;2069166;28;1959;-65
2024/02/27 01:32:22;;;;;;;;;;;;;;;19.27;47.64;100745.34;2067497;28;2435;-65
2024/02/27 01:33:24;;;;;;;;;;;;;;;19.28;47.58;100753.31;2067835;28;1596;-64
2024/02/27 01:34:25;;;;;;;;;;;;;;;19.27;47.55;100748.22;2068549;28;1631;-65
2024/02/27 01:35:27;;;;;;;;;;;;;;;19.29;47.60;100749.06;2067410;28;2065;-65
2024/02/27 01:36:28;;;;;;;;;;;;;;;19.31;47.51;100757.03;2068518;28;2026;-65
2024/02/27 01:37:30;;;;;;;;;;;;;;;19.30;47.44;100747.66;2067063;28;2439;-65
2024/02/27 01:38:31;;;;;;;;;;;;;;;19.32;47.53;100758.53;2067690;28;1596;-70
2024/02/27 01:39:32;;;;;;;;;;;;;;;19.33;47.49;100760.00;2068333;28;2047;-65
2024/02/27 01:40:34;;;;;;;;;;;;;;;19.32;47.40;100756.38;2067850;28;2109;-68
2024/02/27 01:41:37;;;;;;;;;;;;;;;19.33;47.44;100765.75;2066298;28;1594;-71
2024/02/27 01:42:38;;;;;;;;;;;;;;;19.33;47.45;100757.13;2067648;28;2577;-65
2024/02/27 01:43:40;;;;;;;;;;;;;;;19.34;47.42;100762.22;2068136;28;2034;-65
2024/02/27 01:44:53;;;;;;;;;;;;;;;19.33;47.36;100755.00;2067240;28;2098;-64
2024/02/27 01:46:09;;;;;;;;;;;;;;;19.34;47.39;100767.25;2069096;28;2058;-64
2024/02/27 01:47:10;;;;;;;;;;;;;;;19.34;47.49;100762.22;2067121;28;1659;-65
2024/02/27 01:48:12;;;;;;;;;;;;;;;19.36;47.32;100775.94;2067504;28;2100;-64
2024/02/27 01:49:13;;;;;;;;;;;;;;;19.36;47.34;100773.09;2069070;28;2106;-65
2024/02/27 01:50:17;;;;;;;;;;;;;;;19.36;47.59;100770.22;2068931;28;2059;-65
2024/02/27 01:51:19;;;;;;;;;;;;;;;19.36;47.41;100770.22;2069656;28;2169;-63
2024/02/27 01:52:20;;;;;;;;;;;;;;;19.37;47.28;100777.44;2067734;28;1548;-64
2024/02/27 01:53:22;;;;;;;;;;;;;;;19.37;47.36;100777.44;2066520;28;2149;-65
2024/02/27 01:54:24;;;;;;;;;;;;;;;19.37;47.30;100783.16;2067886;28;1902;-66
2024/02/27 01:55:26;;;;;;;;;;;;;;;19.36;47.32;100778.81;2068387;28;1859;-64
2024/02/27 01:56:28;;;;;;;;;;;;;;;19.36;47.33;100776.69;2067035;28;2479;-64
2024/02/27 01:57:29;;;;;;;;;;;;;;;19.36;47.48;100775.94;2066820;28;2561;-65
2024/02/27 01:58:31;;;;;;;;;;;;;;;19.37;47.36;100777.44;2067362;28;2616;-65
2024/02/27 01:59:33;;;;;;;;;;;;;;;19.36;47.41;100788.19;2065444;28;2079;-65
2024/02/27 02:00:34;;;;;;;;;;;;;;;19.37;47.45;100777.44;2067171;28;6259;-65
2024/02/27 02:01:36;;;;;;;;;;;;;;;19.36;47.39;100779.56;2068645;28;1551;-65
2024/02/27 02:02:38;;;;;;;;;;;;;;;19.36;47.38;100778.81;2067202;28;1540;-65
2024/02/27 02:03:40;;;;;;;;;;;;;;;19.36;47.34;100773.09;2067452;28;2105;-65
2024/02/27 02:04:42;;;;;;;;;;;;;;;19.36;47.38;100775.94;2069460;28;2195;-65
2024/02/27 02:05:45;;;;;;;;;;;;;;;19.35;47.40;100775.19;2069428;28;1582;-65
2024/02/27 02:06:46;;;;;;;;;;;;;;;19.36;47.48;100773.09;2068145;28;1595;-64
2024/02/27 02:07:48;;;;;;;;;;;;;;;19.35;47.55;100769.44;2068521;28;2582;-65
2024/02/27 02:08:49;;;;;;;;;;;;;;;19.36;47.55;100773.09;2066006;28;2399;-65
2024/02/27 02:09:51;;;;;;;;;;;;;;;19.35;47.57;100774.44;2070185;28;2070;-65
2024/02/27 02:10:52;;;;;;;;;;;;;;;19.35;47.61;100774.44;2069148;28;2459;-65
2024/02/27 02:11:54;;;;;;;;;;;;;;;19.33;47.57;100777.97;2068674;28;2415;-65
2024/02/27 02:12:56;;;;;;;;;;;;;;;19.36;47.41;100775.94;2067418;28;2618;-65
2024/02/27 02:13:57;;;;;;;;;;;;;;;19.35;47.74;100780.94;2069260;28;2405;-64
2024/02/27 02:15:00;;;;;;;;;;;;;;;19.35;47.73;100780.94;2067226;28;2275;-65
2024/02/27 02:16:02;;;;;;;;;;;;;;;19.34;47.73;100784.47;2069955;28;2177;-65
2024/02/27 02:17:03;;;;;;;;;;;;;;;19.33;47.66;100785.84;2067141;28;2518;-65
2024/02/27 02:18:05;;;;;;;;;;;;;;;19.34;47.65;100778.72;2068801;28;2581;-65
2024/02/27 02:19:06;;;;;;;;;;;;;;;19.33;47.82;100777.22;2066741;28;2109;-65
2024/02/27 02:20:08;;;;;;;;;;;;;;;19.34;47.83;100784.47;2066909;28;2006;-65
2024/02/27 02:21:09;;;;;;;;;;;;;;;19.33;47.92;100782.97;2068464;28;2447;-64
2024/02/27 02:22:11;;;;;;;;;;;;;;;19.32;47.89;100776.47;2070043;28;2216;-65
2024/02/27 02:23:12;;;;;;;;;;;;;;;19.33;47.92;100777.22;2069271;28;1690;-65
2024/02/27 02:24:14;;;;;;;;;;;;;;;19.32;47.87;100772.88;2067876;28;2116;-65
2024/02/27 02:25:17;;;;;;;;;;;;;;;19.32;47.84;100775.75;2068989;28;2002;-64
2024/02/27 02:26:18;;;;;;;;;;;;;;;19.31;47.91;100774.25;2070010;28;1785;-65
2024/02/27 02:27:23;;;;;;;;;;;;;;;19.32;47.92;100781.50;2065348;28;2503;-65
2024/02/27 02:28:24;;;;;;;;;;;;;;;19.31;47.99;100780.75;2066730;28;2007;-65
2024/02/27 02:29:25;;;;;;;;;;;;;;;19.31;47.94;100780.00;2066773;28;2149;-64
2024/02/27 02:30:27;;;;;;;;;;;;;;;19.31;48.04;100777.13;2065495;28;6260;-64
2024/02/27 02:31:28;;;;;;;;;;;;;;;19.31;47.97;100785.72;2067101;28;1697;-65
2024/02/27 02:32:30;;;;;;;;;;;;;;;19.31;47.94;100780.00;2069192;28;2451;-65
2024/02/27 02:33:31;;;;;;;;;;;;;;;19.29;47.99;100789.25;2068488;28;1998;-65
2024/02/27 02:34:33;;;;;;;;;;;;;;;19.29;48.09;100789.25;2068560;28;2209;-65
2024/02/27 02:35:34;;;;;;;;;;;;;;;19.31;48.06;100785.72;2068248;28;2522;-65
2024/02/27 02:36:36;;;;;;;;;;;;;;;19.30;48.02;100784.25;2068875;28;2015;-65
2024/02/27 02:37:37;;;;;;;;;;;;;;;19.30;48.03;100790.00;2068979;28;2086;-65
2024/02/27 02:38:39;;;;;;;;;;;;;;;19.29;47.95;100782.75;2067975;28;2511;-65
2024/02/27 02:39:40;;;;;;;;;;;;;;;19.30;47.94;100781.38;2067216;28;2574;-65
2024/02/27 02:40:41;;;;;;;;;;;;;;;19.27;48.05;100786.28;2069039;28;2530;-65
2024/02/27 02:41:43;;;;;;;;;;;;;;;19.28;48.01;100787.75;2069322;28;2176;-65
2024/02/27 02:42:44;;;;;;;;;;;;;;;19.28;48.08;100787.75;2067869;28;2491;-65
2024/02/27 02:43:46;;;;;;;;;;;;;;;19.27;48.02;100792.03;2068770;28;2511;-65
2024/02/27 02:44:47;;;;;;;;;;;;;;;19.29;48.04;100794.25;2068390;28;2070;-65
2024/02/27 02:45:49;;;;;;;;;;;;;;;19.28;48.07;100795.63;2069236;28;2176;-64
2024/02/27 02:46:50;;;;;;;;;;;;;;;19.27;48.08;100794.16;2068854;28;1677;-64
2024/02/27 02:47:52;;;;;;;;;;;;;;;19.25;48.06;100792.66;2068226;28;2046;-65
2024/02/27 02:48:54;;;;;;;;;;;;;;;19.25;48.09;100801.28;2066550;28;2502;-65
2024/02/27 02:49:55;;;;;;;;;;;;;;;19.25;48.02;100800.53;2067740;28;2478;-65
2024/02/27 02:50:57;;;;;;;;;;;;;;;19.25;48.03;100800.53;2068351;28;1994;-65
2024/02/27 02:51:58;;;;;;;;;;;;;;;19.25;47.99;100800.53;2068567;28;1701;-65
2024/02/27 02:53:00;;;;;;;;;;;;;;;19.25;47.98;100804.16;2067587;28;2065;-65
2024/02/27 02:54:01;;;;;;;;;;;;;;;19.24;48.01;100794.06;2066061;28;2490;-65
2024/02/27 02:55:05;;;;;;;;;;;;;;;19.24;48.00;100794.06;2066268;28;2097;-64
2024/02/27 02:56:06;;;;;;;;;;;;;;;19.22;48.01;100791.09;2067977;28;1619;-65
2024/02/27 02:57:08;;;;;;;;;;;;;;;19.23;48.00;100804.03;2068072;28;2135;-65
2024/02/27 02:58:10;;;;;;;;;;;;;;;19.24;48.01;100799.81;2068600;28;2459;-65
2024/02/27 02:59:11;;;;;;;;;;;;;;;19.22;48.01;100788.22;2068496;28;2475;-65
2024/02/27 03:00:13;;;;;;;;;;;;;;;19.24;47.98;100796.16;2066019;28;6330;-65
2024/02/27 03:01:14;;;;;;;;;;;;;;;19.22;47.94;100796.81;2068061;28;1637;-64
2024/02/27 03:02:15;;;;;;;;;;;;;;;19.23;48.03;100803.31;2067908;28;2514;-65
2024/02/27 03:03:17;;;;;;;;;;;;;;;19.23;47.96;100795.44;2066915;28;2069;-65
2024/02/27 03:04:18;;;;;;;;;;;;;;;19.22;47.96;100802.56;2069164;28;1589;-64
2024/02/27 03:05:20;;;;;;;;;;;;;;;19.22;48.01;100805.44;2068963;28;2121;-65
2024/02/27 03:06:21;;;;;;;;;;;;;;;19.22;47.98;100808.31;2068097;28;2414;-64
2024/02/27 03:07:23;;;;;;;;;;;;;;;19.21;47.97;100801.06;2067430;28;2912;-65
2024/02/27 03:08:24;;;;;;;;;;;;;;;19.22;47.94;100801.84;2067051;28;2335;-65
2024/02/27 03:09:26;;;;;;;;;;;;;;;19.23;47.87;100804.03;2069402;28;2144;-65
2024/02/27 03:10:27;;;;;;;;;;;;;;;19.20;47.95;100816.81;2067772;28;2074;-65
2024/02/27 03:11:28;;;;;;;;;;;;;;;19.22;47.83;100808.31;2065341;28;2522;-65
2024/02/27 03:12:30;;;;;;;;;;;;;;;19.21;47.88;100812.56;2069595;28;1602;-65
2024/02/27 03:13:31;;;;;;;;;;;;;;;19.21;47.92;100809.69;2068059;28;2066;-65
2024/02/27 03:14:32;;;;;;;;;;;;;;;19.21;47.94;100817.56;2067930;28;2105;-65
2024/02/27 03:15:34;;;;;;;;;;;;;;;19.20;47.88;100816.81;2067051;28;2050;-65
2024/02/27 03:16:35;;;;;;;;;;;;;;;19.21;47.90;100815.41;2068165;28;2515;-65
2024/02/27 03:17:36;;;;;;;;;;;;;;;19.20;47.82;100813.94;2067930;28;1926;-65
2024/02/27 03:18:38;;;;;;;;;;;;;;;19.19;47.89;100800.97;2068786;28;1574;-65
2024/02/27 03:19:40;;;;;;;;;;;;;;;19.19;47.84;100809.56;2067234;28;2057;-64
2024/02/27 03:20:41;;;;;;;;;;;;;;;19.19;47.83;100808.84;2067809;28;2213;-65
2024/02/27 03:21:42;;;;;;;;;;;;;;;19.18;47.97;100802.34;2068619;28;1967;-65
2024/02/27 03:22:44;;;;;;;;;;;;;;;19.19;47.88;100805.97;2068897;28;1737;-65
2024/02/27 03:23:45;;;;;;;;;;;;;;;19.18;47.87;100802.34;2067471;28;2170;-65
2024/02/27 03:24:47;;;;;;;;;;;;;;;19.18;47.81;100802.34;2069327;28;2425;-64
2024/02/27 03:25:48;;;;;;;;;;;;;;;19.17;47.83;100800.88;2067654;28;2566;-65
2024/02/27 03:26:50;;;;;;;;;;;;;;;19.17;47.79;100809.50;2066477;28;2577;-65
2024/02/27 03:27:51;;;;;;;;;;;;;;;19.17;47.75;100800.88;2067903;28;2250;-65
2024/02/27 03:28:52;;;;;;;;;;;;;;;19.16;47.75;100805.13;2068429;28;2183;-65
2024/02/27 03:29:54;;;;;;;;;;;;;;;19.16;47.81;100808.00;2069447;28;1580;-65
2024/02/27 03:30:55;;;;;;;;;;;;;;;19.16;47.75;100813.72;2068280;28;6223;-64
2024/02/27 03:31:57;;;;;;;;;;;;;;;19.16;47.71;100815.88;2067246;28;2054;-64
2024/02/27 03:32:58;;;;;;;;;;;;;;;19.16;47.68;100818.75;2067446;28;2007;-65
2024/02/27 03:33:59;;;;;;;;;;;;;;;19.16;47.74;100815.88;2069309;28;1652;-64
2024/02/27 03:35:01;;;;;;;;;;;;;;;19.14;47.68;100822.25;2067782;28;2577;-65
2024/02/27 03:36:03;;;;;;;;;;;;;;;19.14;47.65;100830.84;2067265;28;1649;-65
2024/02/27 03:37:05;;;;;;;;;;;;;;;19.13;47.63;100823.63;2066783;28;2304;-65
2024/02/27 03:38:08;;;;;;;;;;;;;;;19.14;47.54;100833.72;2067383;28;1883;-64
2024/02/27 03:39:09;;;;;;;;;;;;;;;19.14;47.61;100833.72;2068291;28;1701;-65
2024/02/27 03:40:11;;;;;;;;;;;;;;;19.15;47.55;100838.09;2068184;28;1736;-65
2024/02/27 03:41:12;;;;;;;;;;;;;;;19.16;47.57;100833.81;2066239;28;2436;-65
2024/02/27 03:42:15;;;;;;;;;;;;;;;19.17;47.51;100829.59;2067677;28;2085;-64
2024/02/27 03:43:17;;;;;;;;;;;;;;;19.18;47.45;100831.06;2069661;28;1932;-65
2024/02/27 03:44:18;;;;;;;;;;;;;;;19.19;47.40;100834.66;2067255;28;1907;-65
2024/02/27 03:45:19;;;;;;;;;;;;;;;19.19;47.27;100837.53;2066844;28;1971;-65
2024/02/27 03:46:21;;;;;;;;;;;;;;;19.20;47.32;100839.78;2067171;28;1889;-65
2024/02/27 03:47:23;;;;;;;;;;;;;;;19.21;47.49;100841.25;2067831;28;1670;-65
2024/02/27 03:48:24;;;;;;;;;;;;;;;19.22;47.41;100837.00;2068079;28;1693;-65
2024/02/27 03:49:25;;;;;;;;;;;;;;;19.24;47.47;100839.22;2066490;28;2472;-65
2024/02/27 03:50:27;;;;;;;;;;;;;;;19.24;47.40;100840.00;2067051;28;2325;-65
2024/02/27 03:51:28;;;;;;;;;;;;;;;19.24;47.53;100837.13;2069410;28;1936;-65
2024/02/27 03:52:30;;;;;;;;;;;;;;;19.25;47.61;100835.00;2068119;28;2337;-65
2024/02/27 03:53:32;;;;;;;;;;;;;;;19.26;47.70;100839.34;2068500;28;1987;-64
2024/02/27 03:54:33;;;;;;;;;;;;;;;19.25;47.49;100835.72;2068967;28;1656;-64
2024/02/27 03:55:35;;;;;;;;;;;;;;;19.27;47.42;100831.47;2068865;28;1742;-65
2024/02/27 03:56:37;;;;;;;;;;;;;;;19.28;47.55;100832.97;2066723;28;2514;-65
2024/02/27 03:57:38;;;;;;;;;;;;;;;19.28;47.59;100832.97;2068558;28;2364;-65
2024/02/27 03:58:40;;;;;;;;;;;;;;;19.27;47.73;100837.22;2068765;28;2519;-65
2024/02/27 03:59:41;;;;;;;;;;;;;;;19.28;47.61;100824.34;2067923;28;2012;-65
2024/02/27 04:00:43;;;;;;;;;;;;;;;19.29;47.53;100828.69;2065733;28;6366;-65
2024/02/27 04:01:44;;;;;;;;;;;;;;;19.28;47.71;100832.97;2067736;28;2074;-65
2024/02/27 04:02:46;;;;;;;;;;;;;;;19.28;47.76;100832.97;2068372;28;2014;-65
2024/02/27 04:03:47;;;;;;;;;;;;;;;19.28;47.73;100830.09;2068245;28;1716;-65
2024/02/27 04:04:48;;;;;;;;;;;;;;;19.28;47.66;100833.69;2067690;28;2287;-65
2024/02/27 04:05:50;;;;;;;;;;;;;;;19.28;47.87;100832.97;2068073;28;1680;-65
2024/02/27 04:06:51;;;;;;;;;;;;;;;19.29;47.69;100834.44;2067140;28;2336;-65
2024/02/27 04:07:53;;;;;;;;;;;;;;;19.29;47.69;100837.31;2067122;28;1880;-65
2024/02/27 04:08:54;;;;;;;;;;;;;;;19.29;47.77;100834.44;2068371;28;2026;-65
2024/02/27 04:09:56;;;;;;;;;;;;;;;19.28;47.69;100838.69;2068186;28;1660;-65
2024/02/27 04:10:57;;;;;;;;;;;;;;;19.29;47.93;100840.19;2068877;28;1770;-65
2024/02/27 04:11:58;;;;;;;;;;;;;;;19.29;47.90;100838.06;2067600;28;2432;-64
2024/02/27 04:13:00;;;;;;;;;;;;;;;19.30;47.97;100838.81;2068759;28;1945;-65
2024/02/27 04:14:01;;;;;;;;;;;;;;;19.30;48.15;100847.41;2066499;28;2124;-65
2024/02/27 04:15:03;;;;;;;;;;;;;;;19.30;47.94;100845.28;2067675;28;2080;-65
2024/02/27 04:16:04;;;;;;;;;;;;;;;19.31;47.91;100848.91;2066618;28;2209;-65
2024/02/27 04:17:06;;;;;;;;;;;;;;;19.31;48.07;100843.16;2069749;28;1756;-65
2024/02/27 04:18:07;;;;;;;;;;;;;;;19.31;47.85;100848.91;2066571;28;2160;-65
2024/02/27 04:19:09;;;;;;;;;;;;;;;19.32;48.18;100850.41;2067680;28;2399;-65
2024/02/27 04:20:10;;;;;;;;;;;;;;;19.33;48.14;100851.88;2068277;28;1669;-65
2024/02/27 04:21:13;;;;;;;;;;;;;;;19.33;48.00;100854.75;2067803;28;2313;-64
2024/02/27 04:22:14;;;;;;;;;;;;;;;19.33;48.02;100851.88;2066732;28;2007;-65
2024/02/27 04:23:16;;;;;;;;;;;;;;;19.33;48.22;100854.75;2069218;28;1904;-65
2024/02/27 04:24:18;;;;;;;;;;;;;;;19.35;48.13;100851.97;2068177;28;2270;-65
2024/02/27 04:25:19;;;;;;;;;;;;;;;19.35;48.02;100852.72;2066312;28;2275;-65
2024/02/27 04:26:20;;;;;;;;;;;;;;;19.34;48.23;100856.97;2066959;28;2372;-65
2024/02/27 04:27:22;;;;;;;;;;;;;;;19.35;48.11;100854.84;2067234;28;1792;-65
2024/02/27 04:28:23;;;;;;;;;;;;;;;19.35;48.20;100854.84;2067331;28;1782;-65
2024/02/27 04:29:24;;;;;;;;;;;;;;;19.35;48.17;100861.31;2066368;28;1651;-65
2024/02/27 04:30:26;;;;;;;;;;;;;;;19.34;48.32;100859.13;2065897;28;6397;-64
2024/02/27 04:31:27;;;;;;;;;;;;;;;19.34;48.26;100859.84;2068301;28;2178;-64
2024/02/27 04:32:28;;;;;;;;;;;;;;;19.33;48.37;100857.63;2067673;28;1783;-65
2024/02/27 04:33:30;;;;;;;;;;;;;;;19.34;48.25;100864.84;2067177;28;1978;-65
2024/02/27 04:34:32;;;;;;;;;;;;;;;19.33;48.40;100864.09;2067930;28;2113;-65
2024/02/27 04:35:33;;;;;;;;;;;;;;;19.34;48.42;100859.84;2066157;28;2506;-65
2024/02/27 04:36:35;;;;;;;;;;;;;;;19.34;48.47;100859.13;2067923;28;2294;-65
2024/02/27 04:37:36;;;;;;;;;;;;;;;19.34;48.46;100859.13;2068816;28;1914;-65
2024/02/27 04:38:39;;;;;;;;;;;;;;;19.34;48.42;100853.38;2066891;28;1976;-65
2024/02/27 04:39:43;;;;;;;;;;;;;;;19.34;48.39;100854.09;2067439;28;1987;-64
2024/02/27 04:40:44;;;;;;;;;;;;;;;19.35;48.25;100854.84;2068105;28;2301;-65
2024/02/27 04:41:45;;;;;;;;;;;;;;;19.36;48.50;100845.59;2067395;28;2602;-65
2024/02/27 04:42:47;;;;;;;;;;;;;;;19.35;48.53;100846.22;2067349;28;1901;-65
2024/02/27 04:43:48;;;;;;;;;;;;;;;19.36;48.44;100842.72;2068134;28;2019;-64
2024/02/27 04:44:49;;;;;;;;;;;;;;;19.36;48.42;100839.13;2068037;28;2140;-65
2024/02/27 04:45:51;;;;;;;;;;;;;;;19.37;48.37;100840.59;2067741;28;2044;-64
2024/02/27 04:46:52;;;;;;;;;;;;;;;19.37;48.40;100829.09;2067746;28;2246;-64
2024/02/27 04:47:53;;;;;;;;;;;;;;;19.37;48.34;100826.97;2066836;28;2163;-64
2024/02/27 04:48:55;;;;;;;;;;;;;;;19.38;48.32;100828.47;2067379;28;2050;-65
2024/02/27 04:49:56;;;;;;;;;;;;;;;19.37;48.51;100824.09;2067881;28;1963;-65
2024/02/27 04:50:57;;;;;;;;;;;;;;;19.39;48.42;100817.72;2066505;28;2420;-64
2024/02/27 04:51:59;;;;;;;;;;;;;;;19.40;48.53;100816.34;2068745;28;1589;-65
2024/02/27 04:53:00;;;;;;;;;;;;;;;19.39;48.34;100824.22;2067101;28;2002;-65
2024/02/27 04:54:02;;;;;;;;;;;;;;;19.40;48.41;100827.81;2068966;28;1959;-65
2024/02/27 04:55:04;;;;;;;;;;;;;;;19.39;48.46;100832.09;2067470;28;2066;-65
2024/02/27 04:56:05;;;;;;;;;;;;;;;19.40;48.55;100839.31;2066884;28;2419;-65
2024/02/27 04:57:07;;;;;;;;;;;;;;;19.39;48.51;100838.56;2067507;28;2325;-65
2024/02/27 04:58:09;;;;;;;;;;;;;;;19.40;48.44;100847.91;2067053;28;2357;-65
2024/02/27 04:59:10;;;;;;;;;;;;;;;19.39;48.58;100847.19;2067871;28;1635;-65
2024/02/27 05:00:12;;;;;;;;;;;;;;;19.40;48.52;100845.81;2067214;28;6369;-65
2024/02/27 05:01:14;;;;;;;;;;;;;;;19.39;48.63;100832.09;2067035;28;2849;-65
2024/02/27 05:02:15;;;;;;;;;;;;;;;19.39;48.54;100835.69;2067467;28;2349;-65
2024/02/27 05:03:17;;;;;;;;;;;;;;;19.39;48.68;100834.97;2066901;28;2475;-65
2024/02/27 05:04:18;;;;;;;;;;;;;;;19.39;48.58;100837.81;2067302;28;2490;-64
2024/02/27 05:05:20;;;;;;;;;;;;;;;19.39;48.53;100837.81;2067355;28;1678;-65
2024/02/27 05:06:21;;;;;;;;;;;;;;;19.39;48.64;100843.56;2067291;28;2443;-64
2024/02/27 05:07:23;;;;;;;;;;;;;;;19.38;48.59;100842.09;2066596;28;2332;-64
2024/02/27 05:08:24;;;;;;;;;;;;;;;19.39;48.61;100837.81;2068240;28;2503;-65
2024/02/27 05:09:26;;;;;;;;;;;;;;;19.40;48.68;100845.03;2067969;28;2383;-65
2024/02/27 05:10:27;;;;;;;;;;;;;;;19.40;48.58;100839.31;2069569;28;1642;-66
2024/02/27 05:11:28;;;;;;;;;;;;;;;19.40;48.55;100845.81;2066952;28;2404;-65
2024/02/27 05:12:30;;;;;;;;;;;;;;;19.39;48.62;100852.19;2066516;28;2232;-65
2024/02/27 05:13:31;;;;;;;;;;;;;;;19.40;48.62;100845.03;2067842;28;1889;-65
2024/02/27 05:14:33;;;;;;;;;;;;;;;19.43;48.63;100849.53;2068174;28;2210;-65
2024/02/27 05:15:34;;;;;;;;;;;;;;;19.43;48.49;100849.53;2067248;28;2035;-65
2024/02/27 05:16:37;;;;;;;;;;;;;;;19.43;48.55;100856.00;2068750;28;1913;-65
2024/02/27 05:17:38;;;;;;;;;;;;;;;19.43;48.62;100849.53;2068196;28;1927;-65
2024/02/27 05:18:39;;;;;;;;;;;;;;;19.44;48.72;100853.88;2067452;28;2059;-64
2024/02/27 05:19:41;;;;;;;;;;;;;;;19.43;48.74;100852.41;2067850;28;1940;-65
2024/02/27 05:20:42;;;;;;;;;;;;;;;19.44;48.67;100851.00;2065891;28;2392;-65